Time;durP1;ratioP1;P1;durP2;ratioP2;P2;SDS_P1;SDS_P2;PMS_P1;PMS_P2;Temp;Humidity;BMP_temperature;BMP_pressure;BME280_temperature;BME280_humidity;BME280_pressure;Samples;Min_cycle;Max_cycle;Signal;HPM_P1;HPM_P2
2023/03/18 00:01:15;;;;;;;1.63;1.33;;;;;;;9.15;63.08;92609.69;2120754;27;20026;-73
2023/03/18 00:02:24;;;;;;;2.47;0.98;;;;;;;8.94;64.44;92610.97;2124301;27;20062;-73
2023/03/18 00:03:32;;;;;;;3.20;1.10;;;;;;;8.88;64.03;92612.63;2114324;27;20019;-74
2023/03/18 00:04:41;;;;;;;5.00;1.88;;;;;;;8.95;65.13;92617.03;2115641;27;20588;-73
2023/03/18 00:05:51;;;;;;;2.42;0.90;;;;;;;8.87;64.46;92607.69;2122941;27;20042;-75
2023/03/18 00:07:01;;;;;;;2.83;1.10;;;;;;;9.22;62.79;92609.53;2114296;27;20059;-73
2023/03/18 00:08:08;;;;;;;3.00;0.90;;;;;;;9.08;64.15;92615.94;2116982;27;20042;-74
2023/03/18 00:09:16;;;;;;;3.53;1.00;;;;;;;8.97;63.97;92614.72;2125292;27;20035;-72
2023/03/18 00:10:22;;;;;;;1.63;0.98;;;;;;;8.95;63.28;92617.78;2115049;27;20073;-73
2023/03/18 00:11:29;;;;;;;3.67;1.20;;;;;;;8.79;64.70;92609.81;2112260;27;20035;-73
2023/03/18 00:12:37;;;;;;;4.43;1.30;;;;;;;8.69;65.44;92611.56;2122131;27;20391;-72
2023/03/18 00:13:49;;;;;;;1.17;0.90;;;;;;;8.71;64.40;92613.78;2124528;27;20601;-73
2023/03/18 00:15:01;;;;;;;4.15;1.17;;;;;;;8.64;66.01;92611.28;2124531;27;20043;-73
2023/03/18 00:16:18;;;;;;;4.07;1.20;;;;;;;8.63;64.59;92615.88;2120987;27;20037;-73
2023/03/18 00:17:27;;;;;;;3.17;1.20;;;;;;;8.68;64.81;92619.94;2115713;27;20019;-74
2023/03/18 00:18:38;;;;;;;2.17;0.88;;;;;;;8.62;65.36;92619.69;2125218;27;20422;-74
2023/03/18 00:19:46;;;;;;;1.75;1.00;;;;;;;8.69;65.07;92614.22;2119013;27;20031;-74
2023/03/18 00:20:59;;;;;;;2.63;1.00;;;;;;;8.62;65.04;92613.63;2109781;27;20055;-74
2023/03/18 00:22:09;;;;;;;5.47;1.00;;;;;;;8.58;65.22;92627.75;2121533;27;20058;-73
2023/03/18 00:23:21;;;;;;;1.70;1.10;;;;;;;8.87;64.65;92624.47;2125594;27;20027;-74
2023/03/18 00:24:30;;;;;;;2.10;1.00;;;;;;;8.76;64.05;92629.28;2124152;27;20038;-73
2023/03/18 00:25:38;;;;;;;2.58;1.00;;;;;;;9.02;63.10;92641.63;2127013;27;20049;-74
2023/03/18 00:26:46;;;;;;;6.47;1.52;;;;;;;9.29;61.72;92635.25;2119169;27;20036;-73
2023/03/18 00:27:54;;;;;;;2.00;1.02;;;;;;;9.27;61.64;92621.63;2126063;27;20065;-73
2023/03/18 00:29:02;;;;;;;1.95;1.10;;;;;;;9.07;62.67;92632.38;2127713;27;20047;-73
2023/03/18 00:30:08;;;;;;;5.07;0.95;;;;;;;8.86;64.86;92638.19;2126240;27;20042;-73
2023/03/18 00:31:15;;;;;;;1.48;1.10;;;;;;;8.78;65.25;92627.72;2123254;27;20019;-74
2023/03/18 00:32:26;;;;;;;2.85;1.10;;;;;;;9.11;62.24;92635.69;2118346;27;20023;-75
2023/03/18 00:33:34;;;;;;;3.00;1.05;;;;;;;8.91;63.48;92630.47;2115432;27;20043;-75
2023/03/18 00:34:42;;;;;;;3.13;1.27;;;;;;;8.90;63.65;92636.94;2114028;27;20047;-75
2023/03/18 00:35:53;;;;;;;1.15;1.00;;;;;;;8.80;63.77;92638.69;2117382;27;20050;-74
2023/03/18 00:37:02;;;;;;;4.90;1.30;;;;;;;8.67;65.65;92629.09;2120662;27;20507;-74
2023/03/18 00:38:14;;;;;;;5.93;1.17;;;;;;;8.76;63.88;92635.34;2125750;27;20057;-73
2023/03/18 00:39:25;;;;;;;1.58;1.00;;;;;;;8.72;64.35;92639.28;2124235;27;20031;-74
2023/03/18 00:42:12;;;;;;;2.75;1.25;;;;;;;8.75;65.48;92643.78;2097348;28;20047;-74
2023/03/18 00:43:22;;;;;;;3.85;1.20;;;;;;;8.64;65.64;92638.66;2115557;27;20038;-74
2023/03/18 00:44:30;;;;;;;3.65;1.10;;;;;;;8.91;63.40;92649.13;2122919;27;20103;-74
2023/03/18 00:46:04;;;;;;;2.60;1.10;;;;;;;8.70;65.71;92642.34;2123100;27;20035;-74
2023/03/18 00:47:20;;;;;;;3.90;0.95;;;;;;;8.53;66.24;92640.84;2117632;27;20031;-74
2023/03/18 00:48:35;;;;;;;3.10;0.98;;;;;;;8.45;66.28;92642.91;2115445;27;20050;-75
2023/03/18 00:49:43;;;;;;;1.88;1.05;;;;;;;8.46;65.47;92636.41;2113929;27;20035;-74
2023/03/18 00:50:51;;;;;;;4.15;1.08;;;;;;;8.41;67.27;92639.56;2106587;28;20038;-74
2023/03/18 00:52:08;;;;;;;2.45;1.13;;;;;;;8.58;65.43;92635.00;2104005;27;20466;-74
2023/03/18 00:53:18;;;;;;;1.80;0.90;;;;;;;8.57;65.86;92636.19;2116206;27;20044;-74
2023/03/18 00:54:27;;;;;;;3.15;1.00;;;;;;;8.48;66.49;92630.69;2122111;27;20014;-75
2023/03/18 00:55:41;;;;;;;2.03;1.10;;;;;;;8.53;66.88;92632.84;2112667;27;20059;-75
2023/03/18 00:56:57;;;;;;;2.70;1.13;;;;;;;8.61;67.38;92625.44;2106496;27;20054;-74
2023/03/18 00:58:06;;;;;;;2.58;1.20;;;;;;;8.49;66.21;92624.19;2118139;27;20023;-76
2023/03/18 00:59:14;;;;;;;1.77;1.00;;;;;;;8.39;67.47;92623.25;2121971;27;20042;-75
2023/03/18 01:00:22;;;;;;;3.08;1.10;;;;;;;8.28;67.26;92630.66;2121308;27;20107;-75
2023/03/18 01:01:30;;;;;;;3.40;1.15;;;;;;;8.41;66.72;92634.22;2120168;27;20023;-74
2023/03/18 01:02:40;;;;;;;4.30;1.10;;;;;;;8.36;67.92;92631.28;2121597;27;20035;-76
2023/03/18 01:03:52;;;;;;;1.90;1.10;;;;;;;8.42;66.18;92630.41;2111714;28;20516;-75
2023/03/18 01:05:01;;;;;;;4.20;0.98;;;;;;;8.36;65.63;92636.59;2116836;27;20035;-76
2023/03/18 01:06:11;;;;;;;1.95;0.82;;;;;;;8.25;66.55;92626.94;2117490;27;20435;-74
2023/03/18 01:07:19;;;;;;;1.80;1.10;;;;;;;8.28;67.17;92628.75;2107776;28;20803;-75
2023/03/18 01:08:29;;;;;;;3.35;0.80;;;;;;;8.73;64.77;92630.84;2106397;27;20050;-75
2023/03/18 01:09:39;;;;;;;2.20;1.00;;;;;;;8.67;65.57;92631.78;2116644;27;20106;-73
2023/03/18 01:10:49;;;;;;;1.80;1.10;;;;;;;8.40;65.39;92626.66;2120907;27;20039;-74
2023/03/18 01:12:03;;;;;;;2.45;1.00;;;;;;;8.30;66.25;92631.03;2116458;27;20071;-75
2023/03/18 01:13:11;;;;;;;3.85;0.98;;;;;;;8.16;67.73;92624.06;2117796;27;20063;-76
2023/03/18 01:14:16;;;;;;;1.95;1.00;;;;;;;8.08;68.17;92622.72;2120543;27;20031;-75
2023/03/18 01:15:31;;;;;;;1.92;1.00;;;;;;;8.29;67.03;92624.19;2121996;27;20452;-75
2023/03/18 01:16:38;;;;;;;2.22;1.05;;;;;;;8.11;68.45;92623.81;2121855;27;20023;-75
2023/03/18 01:17:51;;;;;;;3.78;1.20;;;;;;;8.08;67.73;92626.13;2118519;27;20089;-74
2023/03/18 01:18:59;;;;;;;2.95;1.00;;;;;;;8.05;68.89;92626.94;2108170;28;20024;-75
2023/03/18 01:20:10;;;;;;;3.33;1.02;;;;;;;7.89;69.37;92624.22;2114925;27;20404;-75
2023/03/18 01:21:23;;;;;;;2.53;1.02;;;;;;;7.74;70.64;92625.69;2120193;27;20030;-75
2023/03/18 01:22:33;;;;;;;2.22;1.10;;;;;;;7.55;73.88;92633.25;2120441;27;20054;-76
2023/03/18 01:23:41;;;;;;;1.52;1.10;;;;;;;7.68;69.88;92630.72;2115691;27;20028;-75
2023/03/18 01:24:47;;;;;;;3.58;1.00;;;;;;;7.75;69.42;92627.16;2117600;27;20031;-73
2023/03/18 01:25:54;;;;;;;3.60;1.20;;;;;;;7.83;68.64;92618.66;2115780;27;20028;-76
2023/03/18 01:26:58;;;;;;;2.75;1.02;;;;;;;7.76;70.10;92613.44;2116221;27;20116;-76
2023/03/18 01:28:04;;;;;;;1.52;1.20;;;;;;;7.67;71.17;92621.22;2113653;27;20015;-74
2023/03/18 01:29:05;;;;;;;1.40;0.98;;;;;;;7.72;69.93;92618.09;2117879;27;20055;-75
2023/03/18 01:30:16;;;;;;;4.05;1.30;;;;;;;7.70;70.28;92625.00;2122631;27;20027;-74
2023/03/18 01:31:29;;;;;;;4.03;1.15;;;;;;;7.57;73.27;92624.84;2125662;27;20457;-74
2023/03/18 01:32:37;;;;;;;2.88;0.93;;;;;;;7.46;74.88;92621.63;2113426;27;20024;-74
2023/03/18 01:33:43;;;;;;;3.42;1.30;;;;;;;7.42;75.08;92615.59;2118509;27;20035;-75
2023/03/18 01:34:52;;;;;;;2.25;0.90;;;;;;;7.29;75.92;92615.47;2121555;27;20038;-74
2023/03/18 01:36:02;;;;;;;2.20;1.02;;;;;;;7.27;77.47;92621.19;2120799;27;20042;-74
2023/03/18 01:37:07;;;;;;;;;;;;;;;7.20;78.24;92618.66;2113727;27;20036;-74
2023/03/18 01:38:09;;;;;;;2.08;1.15;;;;;;;7.17;77.59;92630.09;2115097;27;19919;-74
2023/03/18 01:39:22;;;;;;;2.97;0.90;;;;;;;7.02;79.79;92626.16;2107378;28;20722;-73
2023/03/18 01:40:28;;;;;;;1.95;0.98;;;;;;;7.17;77.80;92610.75;2107509;27;20102;-74
2023/03/18 01:41:35;;;;;;;2.45;0.95;;;;;;;7.19;78.25;92614.47;2115223;27;20107;-76
2023/03/18 01:42:40;;;;;;;1.80;0.93;;;;;;;7.29;74.79;92610.16;2114427;27;20101;-73
2023/03/18 01:43:44;;;;;;;2.40;1.20;;;;;;;7.32;73.59;92618.06;2121176;27;20444;-73
2023/03/18 01:45:09;;;;;;;3.58;0.90;;;;;;;7.28;73.85;92620.03;2112259;28;20039;-74
2023/03/18 01:46:36;;;;;;;2.03;1.00;;;;;;;7.32;74.71;92615.41;2117219;27;20023;-73
2023/03/18 01:47:43;;;;;;;2.05;1.00;;;;;;;7.31;74.44;92605.91;2119458;27;20086;-74
2023/03/18 01:48:52;;;;;;;2.22;1.10;;;;;;;7.30;75.96;92601.03;2121339;27;20106;-74
2023/03/18 01:50:00;;;;;;;1.58;1.10;;;;;;;7.30;74.28;92603.69;2121755;27;20026;-75
2023/03/18 01:51:12;;;;;;;2.70;1.02;;;;;;;7.43;74.10;92609.91;2120941;27;20019;-74
2023/03/18 01:52:24;;;;;;;2.05;1.10;;;;;;;7.28;72.56;92612.03;2106024;28;20082;-74
2023/03/18 01:53:28;;;;;;;1.33;1.10;;;;;;;7.50;72.38;92612.41;2105386;28;20442;-75
2023/03/18 01:54:36;;;;;;;1.52;1.00;;;;;;;7.66;73.38;92613.66;2115858;27;20054;-73
2023/03/18 01:55:39;;;;;;;2.15;1.15;;;;;;;7.63;71.07;92612.56;2119641;27;20476;-72
2023/03/18 01:56:44;;;;;;;2.25;0.80;;;;;;;7.53;70.09;92611.59;2120557;27;20063;-73
2023/03/18 01:57:47;;;;;;;2.55;0.90;;;;;;;7.49;72.07;92613.56;2121493;27;20027;-74
2023/03/18 01:58:52;;;;;;;2.05;0.90;;;;;;;7.43;73.02;92614.47;2121043;27;20110;-74
2023/03/18 01:59:54;;;;;;;1.80;1.10;;;;;;;7.34;72.34;92607.03;2120357;27;20358;-76
2023/03/18 02:01:03;;;;;;;2.47;1.00;;;;;;;7.29;72.26;92612.81;2122277;27;20031;-75
2023/03/18 02:02:09;;;;;;;2.10;1.00;;;;;;;7.29;71.26;92607.50;2121418;27;20058;-75
2023/03/18 02:03:11;;;;;;;2.00;1.00;;;;;;;7.28;72.59;92600.66;2114095;27;20032;-76
2023/03/18 02:04:13;;;;;;;2.42;1.08;;;;;;;7.33;72.31;92608.16;2114312;27;20019;-76
2023/03/18 02:05:17;;;;;;;3.60;1.30;;;;;;;7.37;73.78;92597.47;2121268;27;20027;-75
2023/03/18 02:06:18;;;;;;;3.65;1.08;;;;;;;7.35;74.17;92597.88;2121216;27;20031;-75
2023/03/18 02:07:24;;;;;;;2.88;1.05;;;;;;;7.39;71.51;92608.47;2120984;27;20123;-75
2023/03/18 02:08:25;;;;;;;3.05;1.00;;;;;;;7.47;72.41;92596.53;2112874;27;20028;-75
2023/03/18 02:09:26;;;;;;;1.67;0.95;;;;;;;7.52;70.48;92610.13;2114369;27;20027;-75
2023/03/18 02:10:30;;;;;;;3.28;0.80;;;;;;;7.52;69.28;92612.78;2114654;27;20070;-75
2023/03/18 02:11:34;;;;;;;1.65;1.02;;;;;;;7.74;68.69;92610.47;2115548;27;20020;-74
2023/03/18 02:12:38;;;;;;;2.13;1.00;;;;;;;7.87;68.91;92612.50;2106903;28;20108;-75
2023/03/18 02:13:42;;;;;;;1.63;0.93;;;;;;;8.04;67.46;92604.16;2114411;27;20480;-74
2023/03/18 02:14:44;;;;;;;2.63;1.13;;;;;;;7.97;67.18;92601.63;2120400;27;20055;-76
2023/03/18 02:15:52;;;;;;;4.43;1.20;;;;;;;8.02;66.88;92603.81;2123320;27;20035;-74
2023/03/18 02:17:14;;;;;;;2.28;0.93;;;;;;;7.79;68.99;92603.91;2120283;27;20077;-75
2023/03/18 02:20:07;;;;;;;;;;;;;;;7.58;69.62;92605.81;2138555;27;20547;-75
2023/03/18 02:21:39;;;;;;;5.07;1.17;;;;;;;7.60;68.45;92608.06;2138429;27;19923;-75
2023/03/18 02:22:46;;;;;;;1.33;0.90;;;;;;;7.46;69.21;92609.09;2138020;27;20033;-74
2023/03/18 02:24:00;;;;;;;2.47;1.00;;;;;;;7.50;68.21;92609.00;2137508;27;20426;-75
2023/03/18 02:25:12;;;;;;;3.50;1.35;;;;;;;7.45;69.42;92604.91;2136681;27;20033;-76
2023/03/18 02:26:26;;;;;;;2.03;0.88;;;;;;;7.37;69.59;92605.44;2136505;27;20039;-75
2023/03/18 02:27:32;;;;;;;2.30;1.05;;;;;;;7.30;70.66;92609.00;2136254;27;20026;-76
2023/03/18 02:28:36;;;;;;;1.13;0.80;;;;;;;7.26;69.95;92590.44;2127297;27;20125;-75
2023/03/18 02:29:39;;;;;;;1.50;1.00;;;;;;;7.24;70.72;92599.97;2110794;28;20020;-74
2023/03/18 02:30:46;;;;;;;3.63;0.90;;;;;;;7.23;70.71;92606.44;2117457;27;20058;-77
2023/03/18 02:31:49;;;;;;;2.42;1.00;;;;;;;7.19;71.36;92608.41;2119668;27;20132;-77
2023/03/18 02:32:53;;;;;;;3.90;1.10;;;;;;;7.22;71.60;92607.63;2117467;28;20118;-75
2023/03/18 02:33:55;;;;;;;2.17;0.98;;;;;;;7.23;71.11;92609.84;2118295;27;20115;-75
2023/03/18 02:35:00;;;;;;;2.78;0.90;;;;;;;7.11;72.99;92615.75;2136914;27;20417;-75
2023/03/18 02:36:05;;;;;;;2.55;1.00;;;;;;;7.03;74.85;92607.16;2126854;27;20087;-75
2023/03/18 02:37:09;;;;;;;2.58;1.05;;;;;;;6.97;73.63;92595.50;2126478;27;20039;-76
2023/03/18 02:38:10;;;;;;;2.20;1.40;;;;;;;6.91;74.91;92594.47;2124475;27;20098;-77
2023/03/18 02:39:14;;;;;;;2.22;1.00;;;;;;;6.96;74.81;92594.00;2117886;27;20110;-75
2023/03/18 02:40:28;;;;;;;2.55;1.10;;;;;;;6.87;76.26;92588.44;2126969;27;20821;-75
2023/03/18 02:41:34;;;;;;;2.95;0.93;;;;;;;6.92;74.37;92587.97;2114796;28;20031;-75
2023/03/18 02:42:35;;;;;;;3.13;1.13;;;;;;;7.00;72.73;92591.28;2119604;27;20038;-77
2023/03/18 02:43:36;;;;;;;1.33;0.82;;;;;;;7.30;70.58;92590.38;2114236;27;20031;-75
2023/03/18 02:44:41;;;;;;;2.17;0.90;;;;;;;7.46;70.51;92598.47;2116048;27;20055;-75
2023/03/18 02:46:16;;;;;;;2.83;1.15;;;;;;;7.68;69.01;92606.00;2116034;28;20114;-75
2023/03/18 02:47:20;;;;;;;2.92;1.17;;;;;;;7.67;68.27;92613.25;2132187;27;20019;-75
2023/03/18 02:48:26;;;;;;;1.98;1.10;;;;;;;7.42;70.87;92605.75;2138015;27;20360;-75
2023/03/18 02:49:27;;;;;;;2.28;0.90;;;;;;;7.25;71.80;92606.81;2136381;27;20787;-75
2023/03/18 02:50:28;;;;;;;3.95;1.10;;;;;;;7.05;73.63;92604.09;2134574;27;20045;-75
2023/03/18 02:51:29;;;;;;;2.50;1.08;;;;;;;6.97;75.32;92611.44;2136766;27;20026;-75
2023/03/18 02:52:31;;;;;;;3.90;1.15;;;;;;;6.80;74.87;92617.78;2137376;27;20030;-74
2023/03/18 02:53:32;;;;;;;1.85;0.90;;;;;;;6.65;77.06;92619.91;2117786;28;20437;-75
2023/03/18 02:54:33;;;;;;;3.03;0.90;;;;;;;6.52;79.63;92609.09;2118159;27;20020;-75
2023/03/18 02:55:34;;;;;;;1.88;1.00;;;;;;;6.43;80.37;92614.16;2137078;27;20023;-75
2023/03/18 02:56:37;;;;;;;3.35;1.15;;;;;;;6.38;83.65;92619.94;2126984;27;20030;-75
2023/03/18 02:57:38;;;;;;;2.28;1.02;;;;;;;6.31;85.27;92618.09;2130285;27;20503;-75
2023/03/18 02:58:40;;;;;;;3.03;1.00;;;;;;;6.35;85.52;92622.63;2129336;27;20035;-74
2023/03/18 02:59:41;;;;;;;1.90;0.93;;;;;;;6.28;87.12;92615.53;2116773;27;20609;-76
2023/03/18 03:00:42;;;;;;;1.80;0.77;;;;;;;6.21;89.17;92613.69;2115845;28;20038;-74
2023/03/18 03:01:46;;;;;;;3.05;1.10;;;;;;;6.19;88.52;92615.25;2116856;27;20114;-74
2023/03/18 03:02:47;;;;;;;1.15;0.90;;;;;;;6.02;91.63;92615.09;2119738;27;20500;-74
2023/03/18 03:03:48;;;;;;;2.78;0.93;;;;;;;6.00;93.96;92619.28;2126842;27;20101;-74
2023/03/18 03:04:50;;;;;;;1.90;1.05;;;;;;;5.92;98.41;92623.16;2118078;28;20524;-75
2023/03/18 03:05:52;;;;;;;2.25;1.17;;;;;;;5.88;98.56;92625.84;2116710;27;20090;-74
2023/03/18 03:06:55;;;;;;;2.45;1.13;;;;;;;5.79;99.45;92628.22;2135244;27;20026;-74
2023/03/18 03:07:56;;;;;;;2.58;1.10;;;;;;;5.79;96.84;92628.22;2135960;27;20061;-74
2023/03/18 03:08:59;;;;;;;4.63;1.05;;;;;;;5.75;98.82;92622.19;2136652;27;20639;-75
2023/03/18 03:10:00;;;;;;;1.80;1.10;;;;;;;5.74;99.71;92631.31;2137067;27;20029;-73
2023/03/18 03:11:02;;;;;;;3.40;1.30;;;;;;;5.68;100.00;92631.00;2125711;27;20064;-74
2023/03/18 03:12:03;;;;;;;3.17;1.00;;;;;;;5.85;99.93;92631.19;2127182;27;20027;-74
2023/03/18 03:13:06;;;;;;;1.65;1.15;;;;;;;5.85;98.87;92637.25;2125417;27;20382;-75
2023/03/18 03:14:08;;;;;;;2.17;0.95;;;;;;;5.91;97.83;92625.03;2126163;27;20080;-76
2023/03/18 03:15:09;;;;;;;2.40;0.90;;;;;;;5.86;100.00;92624.75;2135956;27;20038;-74
2023/03/18 03:16:12;;;;;;;2.60;1.20;;;;;;;5.70;100.00;92626.03;2137259;27;20110;-75
2023/03/18 03:17:14;;;;;;;2.20;1.13;;;;;;;5.51;100.00;92626.66;2137162;27;20027;-75
2023/03/18 03:18:16;;;;;;;3.15;1.15;;;;;;;5.49;100.00;92635.00;2136508;27;20026;-74
2023/03/18 03:19:17;;;;;;;2.38;1.00;;;;;;;5.60;100.00;92632.22;2135980;27;20091;-75
2023/03/18 03:20:18;;;;;;;1.45;0.82;;;;;;;5.49;100.00;92627.06;2126235;27;20057;-75
2023/03/18 03:21:19;;;;;;;2.60;1.13;;;;;;;5.48;100.00;92622.13;2116040;28;20032;-75
2023/03/18 03:22:20;;;;;;;2.42;1.02;;;;;;;5.44;100.00;92622.16;2112888;28;20016;-75
2023/03/18 03:23:24;;;;;;;1.35;0.85;;;;;;;5.42;100.00;92618.41;2129782;27;20042;-75
2023/03/18 03:24:25;;;;;;;4.60;0.75;;;;;;;5.43;100.00;92633.91;2137197;27;20026;-74
2023/03/18 03:25:27;;;;;;;1.77;0.80;;;;;;;5.41;100.00;92622.97;2136949;27;20119;-75
2023/03/18 03:26:28;;;;;;;4.28;1.17;;;;;;;5.43;100.00;92620.66;2137924;27;20523;-74
2023/03/18 03:27:29;;;;;;;2.30;1.08;;;;;;;5.55;100.00;92619.41;2127585;27;20033;-74
2023/03/18 03:28:31;;;;;;;3.80;1.00;;;;;;;5.55;100.00;92616.75;2127011;27;20063;-73
2023/03/18 03:29:32;;;;;;;1.48;0.82;;;;;;;5.76;100.00;92624.47;2126777;27;20033;-75
2023/03/18 03:30:34;;;;;;;4.10;1.00;;;;;;;5.67;100.00;92623.47;2123253;27;20034;-75
2023/03/18 03:31:35;;;;;;;3.35;1.15;;;;;;;6.03;100.00;92623.81;2130460;27;20133;-75
2023/03/18 03:32:37;;;;;;;2.42;1.00;;;;;;;5.84;100.00;92611.88;2129594;27;20015;-74
2023/03/18 03:33:42;;;;;;;2.92;0.82;;;;;;;5.75;100.00;92620.31;2129442;27;20571;-74
2023/03/18 03:34:44;;;;;;;2.20;0.90;;;;;;;5.63;100.00;92620.84;2112549;28;20031;-74
2023/03/18 03:35:48;;;;;;;2.30;1.05;;;;;;;5.76;100.00;92624.47;2113045;27;20020;-74
2023/03/18 03:36:49;;;;;;;3.13;0.90;;;;;;;5.82;99.34;92619.47;2130957;27;20053;-74
2023/03/18 03:37:50;;;;;;;2.38;0.90;;;;;;;5.78;100.00;92624.06;2131019;27;20449;-74
2023/03/18 03:38:51;;;;;;;1.70;0.80;;;;;;;5.68;100.00;92617.00;2130586;27;20445;-75
2023/03/18 03:39:53;;;;;;;1.77;1.42;;;;;;;5.63;100.00;92618.19;2130983;27;20406;-73
2023/03/18 03:40:54;;;;;;;2.63;0.93;;;;;;;5.64;100.00;92624.25;2129600;27;20388;-74
2023/03/18 03:41:55;;;;;;;3.40;0.98;;;;;;;5.62;99.30;92615.91;2130889;27;20027;-74
2023/03/18 03:42:56;;;;;;;3.10;0.90;;;;;;;5.65;100.00;92615.13;2111603;27;20466;-74
2023/03/18 03:43:57;;;;;;;3.22;0.98;;;;;;;5.59;100.00;92619.38;2110946;28;20036;-74
2023/03/18 03:44:58;;;;;;;1.50;0.95;;;;;;;5.46;100.00;92619.13;2130972;27;20022;-75
2023/03/18 03:45:59;;;;;;;3.90;1.40;;;;;;;5.38;100.00;92618.44;2131355;27;20019;-74
2023/03/18 03:47:00;;;;;;;1.98;0.80;;;;;;;5.34;100.00;92623.03;2130825;27;20030;-75
2023/03/18 03:48:02;;;;;;;1.00;0.90;;;;;;;5.30;100.00;92624.97;2131093;27;20721;-73
2023/03/18 03:49:04;;;;;;;2.15;1.00;;;;;;;5.25;100.00;92618.19;2130049;27;20054;-73
2023/03/18 03:50:05;;;;;;;1.67;1.10;;;;;;;5.11;100.00;92623.63;2129603;27;20026;-74
2023/03/18 03:51:07;;;;;;;2.50;0.95;;;;;;;5.06;100.00;92616.13;2130279;27;20050;-73
2023/03/18 03:52:08;;;;;;;1.42;0.95;;;;;;;5.01;100.00;92619.94;2118049;27;20042;-73
2023/03/18 03:53:11;;;;;;;4.80;1.10;;;;;;;4.86;100.00;92625.75;2110034;28;20031;-74
2023/03/18 03:54:12;;;;;;;3.05;1.00;;;;;;;4.85;100.00;92624.25;2118885;27;20099;-73
2023/03/18 03:55:18;;;;;;;1.92;0.90;;;;;;;4.90;100.00;92629.88;2130769;27;20022;-73
2023/03/18 03:56:19;;;;;;;3.08;1.33;;;;;;;4.82;100.00;92622.38;2130361;27;20101;-73
2023/03/18 03:57:21;;;;;;;1.70;1.02;;;;;;;4.77;100.00;92626.94;2130559;27;20030;-74
2023/03/18 03:58:22;;;;;;;4.38;1.00;;;;;;;4.70;100.00;92628.91;2130883;27;20031;-73
2023/03/18 03:59:23;;;;;;;2.65;1.13;;;;;;;4.68;100.00;92636.47;2130813;27;20034;-75
2023/03/18 04:00:26;;;;;;;2.38;1.00;;;;;;;4.67;100.00;92629.69;2130404;27;20031;-75
2023/03/18 04:01:29;;;;;;;3.25;0.95;;;;;;;4.56;100.00;92635.03;2130074;27;20026;-74
2023/03/18 04:02:31;;;;;;;3.38;1.20;;;;;;;4.54;100.00;92637.34;2130138;27;20026;-73
2023/03/18 04:03:32;;;;;;;2.35;0.93;;;;;;;4.48;100.00;92639.66;2130224;27;20453;-74
2023/03/18 04:04:34;;;;;;;1.60;0.90;;;;;;;4.45;100.00;92637.75;2130517;27;20026;-74
2023/03/18 04:05:36;;;;;;;1.63;1.10;;;;;;;4.52;100.00;92640.38;2130951;27;20030;-74
2023/03/18 04:06:38;;;;;;;1.13;0.90;;;;;;;4.46;100.00;92641.16;2130504;27;20022;-73
2023/03/18 04:07:44;;;;;;;1.25;1.00;;;;;;;4.41;100.00;92644.22;2129628;27;20159;-74
2023/03/18 04:08:49;;;;;;;2.60;0.98;;;;;;;4.31;100.00;92642.41;2130105;27;20545;-74
2023/03/18 04:09:56;;;;;;;1.80;1.05;;;;;;;4.27;100.00;92639.78;2129817;27;20503;-74
2023/03/18 04:11:05;;;;;;;2.08;1.23;;;;;;;4.21;100.00;92636.00;2119258;27;20019;-74
2023/03/18 04:12:12;;;;;;;1.83;1.08;;;;;;;4.20;100.00;92643.19;2114500;27;20634;-73
2023/03/18 04:13:19;;;;;;;1.90;0.95;;;;;;;4.22;100.00;92637.53;2111229;27;21081;-74
2023/03/18 04:14:32;;;;;;;2.10;1.00;;;;;;;4.16;100.00;92641.72;2121512;27;20052;-74
2023/03/18 04:15:33;;;;;;;1.83;1.08;;;;;;;4.13;100.00;92637.22;2130171;27;20375;-73
2023/03/18 04:16:41;;;;;;;2.22;1.08;;;;;;;4.11;100.00;92640.22;2129786;27;20471;-74
2023/03/18 04:17:50;;;;;;;1.38;1.10;;;;;;;4.03;100.00;92650.06;2129805;27;20091;-74
2023/03/18 04:18:51;;;;;;;2.83;1.17;;;;;;;3.94;100.00;92647.09;2130043;27;20071;-74
2023/03/18 04:20:00;;;;;;;3.28;1.05;;;;;;;3.85;100.00;92646.75;2120299;27;20175;-74
2023/03/18 04:21:07;;;;;;;1.98;1.08;;;;;;;3.82;100.00;92649.41;2111752;27;20051;-76
2023/03/18 04:22:08;;;;;;;3.03;1.30;;;;;;;3.84;100.00;92641.88;2120872;27;20628;-73
2023/03/18 04:23:11;;;;;;;1.75;0.98;;;;;;;3.76;100.00;92652.47;2129064;27;20518;-73
2023/03/18 04:24:21;;;;;;;2.40;1.10;;;;;;;3.71;100.00;92644.94;2118315;27;20027;-74
2023/03/18 04:25:27;;;;;;;1.83;1.05;;;;;;;3.68;100.00;92648.34;2120859;27;20019;-75
2023/03/18 04:26:32;;;;;;;3.47;1.10;;;;;;;3.66;100.00;92640.06;2129951;27;20073;-74
2023/03/18 04:27:36;;;;;;;3.22;1.33;;;;;;;3.46;100.00;92642.38;2129443;27;20030;-73
2023/03/18 04:28:44;;;;;;;3.45;1.40;;;;;;;3.51;100.00;92636.72;2129855;27;20110;-74
2023/03/18 04:29:46;;;;;;;2.03;1.08;;;;;;;3.57;100.00;92641.59;2130060;27;20033;-76
2023/03/18 04:30:53;;;;;;;1.08;0.98;;;;;;;3.53;100.00;92637.06;2120411;27;20116;-74
2023/03/18 04:31:57;;;;;;;2.95;1.10;;;;;;;3.51;100.00;92642.00;2109507;28;20043;-74
2023/03/18 04:33:01;;;;;;;2.80;1.13;;;;;;;3.58;100.00;92632.53;2118896;27;20039;-75
2023/03/18 04:34:06;;;;;;;2.97;1.35;;;;;;;3.59;100.00;92637.41;2119526;27;20034;-73
2023/03/18 04:35:09;;;;;;;3.60;1.10;;;;;;;3.56;100.00;92637.44;2117900;27;20046;-74
2023/03/18 04:36:17;;;;;;;2.65;1.00;;;;;;;3.57;100.00;92633.66;2119156;27;20024;-73
2023/03/18 04:37:23;;;;;;;1.42;1.00;;;;;;;3.60;100.00;92638.16;2129698;27;20027;-76
2023/03/18 04:38:29;;;;;;;4.07;1.25;;;;;;;3.57;100.00;92641.59;2129142;27;20039;-73
2023/03/18 04:39:34;;;;;;;1.83;1.10;;;;;;;3.63;100.00;92635.53;2129743;27;20460;-73
2023/03/18 04:40:35;;;;;;;1.52;1.08;;;;;;;3.69;100.00;92643.81;2129925;27;20023;-76
2023/03/18 04:41:36;;;;;;;2.65;1.00;;;;;;;3.69;100.00;92638.53;2118052;27;20019;-75
2023/03/18 04:42:39;;;;;;;1.98;1.25;;;;;;;3.66;100.00;92634.75;2119089;27;20022;-74
2023/03/18 04:43:43;;;;;;;1.00;0.90;;;;;;;3.63;100.00;92637.41;2119917;27;20053;-75
2023/03/18 04:44:52;;;;;;;8.07;1.50;;;;;;;3.69;100.00;92639.28;2108700;28;20042;-74
2023/03/18 04:46:16;;;;;;;3.15;1.00;;;;;;;3.74;100.00;92638.13;2111642;27;20035;-75
2023/03/18 04:47:18;;;;;;;1.77;0.95;;;;;;;3.76;100.00;92636.59;2104723;28;20114;-77
2023/03/18 04:48:31;;;;;;;3.63;1.33;;;;;;;3.74;100.00;92636.25;2108685;27;20508;-74
2023/03/18 04:49:36;;;;;;;2.13;1.10;;;;;;;3.69;100.00;92644.56;2118467;27;20061;-77
2023/03/18 04:50:38;;;;;;;1.70;1.13;;;;;;;3.65;100.00;92637.81;2119003;27;20422;-75
2023/03/18 04:51:39;;;;;;;3.22;1.10;;;;;;;3.62;100.00;92641.94;2128921;27;20470;-74
2023/03/18 04:52:41;;;;;;;3.20;1.13;;;;;;;3.64;100.00;92644.19;2118965;27;20105;-74
2023/03/18 04:53:42;;;;;;;1.35;1.10;;;;;;;3.67;100.00;92640.81;2118110;27;20027;-75
2023/03/18 04:54:43;;;;;;;2.10;1.27;;;;;;;3.60;100.00;92638.16;2130416;27;20137;-75
2023/03/18 04:55:45;;;;;;;1.80;1.00;;;;;;;3.59;100.00;92647.25;2130304;27;20034;-76
2023/03/18 04:56:46;;;;;;;4.60;1.00;;;;;;;3.57;100.00;92644.25;2130289;27;20480;-75
2023/03/18 04:57:47;;;;;;;1.50;1.10;;;;;;;3.54;100.00;92643.09;2130274;27;20034;-75
2023/03/18 04:58:48;;;;;;;1.83;1.10;;;;;;;3.35;100.00;92641.66;2129169;27;20022;-74
2023/03/18 04:59:50;;;;;;;8.02;1.10;;;;;;;3.33;100.00;92649.19;2129641;27;20039;-75
2023/03/18 05:00:52;;;;;;;2.70;1.20;;;;;;;3.31;100.00;92646.19;2129839;27;20018;-74
2023/03/18 05:01:53;;;;;;;3.55;1.20;;;;;;;3.23;100.00;92644.69;2129874;27;20027;-73
2023/03/18 05:02:55;;;;;;;3.45;1.30;;;;;;;3.34;100.00;92639.41;2118173;27;20023;-75
2023/03/18 05:03:56;;;;;;;1.98;1.15;;;;;;;3.29;100.00;92643.16;2120363;27;20132;-74
2023/03/18 05:05:00;;;;;;;1.75;1.10;;;;;;;3.23;100.00;92644.69;2118073;27;20026;-75
2023/03/18 05:06:01;;;;;;;2.30;1.17;;;;;;;3.10;100.00;92640.94;2104288;28;20390;-76
2023/03/18 05:07:03;;;;;;;2.40;1.25;;;;;;;3.05;100.00;92642.09;2104659;28;20024;-74
2023/03/18 05:08:06;;;;;;;3.63;1.10;;;;;;;3.03;100.00;92647.75;2099597;28;20036;-76
2023/03/18 05:09:08;;;;;;;2.28;1.00;;;;;;;2.98;100.00;92647.34;2095231;28;20040;-75
2023/03/18 05:10:10;;;;;;;2.92;1.15;;;;;;;2.92;100.00;92646.25;2112790;27;20099;-75
2023/03/18 05:11:11;;;;;;;4.07;1.20;;;;;;;2.86;100.00;92656.44;2108860;28;20035;-74
2023/03/18 05:12:14;;;;;;;1.67;1.00;;;;;;;2.97;100.00;92656.41;2103485;28;20028;-74
2023/03/18 05:13:16;;;;;;;2.90;1.40;;;;;;;2.92;100.00;92649.63;2120326;27;20031;-74
2023/03/18 05:14:17;;;;;;;2.85;1.10;;;;;;;2.86;100.00;92648.53;2130034;27;20694;-74
2023/03/18 05:15:19;;;;;;;2.85;1.27;;;;;;;2.92;100.00;92654.16;2129399;27;20027;-74
2023/03/18 05:16:20;;;;;;;3.55;1.70;;;;;;;2.98;100.00;92658.66;2130483;27;20114;-74